createdAt,value
2018-01-25T00:04:25.162Z,"    0"
2018-01-25T00:09:25.724Z,"    0"
2018-01-25T00:14:20.511Z,"    0"
2018-01-25T00:19:20.474Z,"    0"
2018-01-25T00:24:19.772Z,"    0"
2018-01-25T00:29:19.071Z,"    0"
2018-01-25T00:34:14.696Z,"    0"
2018-01-25T00:39:09.991Z,"    0"
2018-01-25T00:44:05.564Z,"    0"
2018-01-25T00:49:00.944Z,"    0"
2018-01-25T00:54:02.281Z,"    0"
2018-01-25T00:59:01.827Z,"    0"
2018-01-25T01:04:00.734Z,"    0"
2018-01-25T01:08:55.275Z,"    0"
2018-01-25T01:13:51.152Z,"    0"
2018-01-25T01:18:51.218Z,"    0"
2018-01-25T01:23:50.768Z,"    0"
2018-01-25T01:28:45.241Z,"    0"
2018-01-25T01:33:45.848Z,"    0"
2018-01-25T01:38:41.804Z,"    0"
2018-01-25T01:43:42.193Z,"    0"
2018-01-25T01:48:36.887Z,"    0"
2018-01-25T01:53:37.514Z,"    0"
2018-01-25T01:58:33.377Z,"    0"
2018-01-25T02:03:28.752Z,"    0"
2018-01-25T02:08:24.657Z,"    0"
2018-01-25T02:13:20.554Z,"    0"
2018-01-25T02:18:16.521Z,"    0"
2018-01-25T02:23:13.383Z,"    0"
2018-01-25T02:28:12.842Z,"    0"
2018-01-25T02:33:08.827Z,"    0"
2018-01-25T02:38:04.320Z,"    0"
2018-01-25T02:43:04.054Z,"    0"
2018-01-25T02:48:02.891Z,"    0"
2018-01-25T02:52:58.237Z,"    0"
2018-01-25T02:57:54.871Z,"    0"
2018-01-25T03:02:55.160Z,"    0"
2018-01-25T03:07:49.844Z,"    0"
2018-01-25T03:12:46.100Z,"    0"
2018-01-25T03:17:42.613Z,"    0"
2018-01-25T03:22:41.967Z,"    0"
2018-01-25T03:27:40.904Z,"    0"
2018-01-25T03:32:35.339Z,"    0"
2018-01-25T03:37:36.219Z,"    0"
2018-01-25T03:42:31.110Z,"    0"
2018-01-25T03:47:31.143Z,"    0"
2018-01-25T03:52:26.254Z,"    0"
2018-01-25T03:57:22.363Z,"    0"
2018-01-25T04:02:22.010Z,"    0"
2018-01-25T04:07:16.978Z,"    0"
2018-01-25T04:12:12.618Z,"    0"
2018-01-25T04:17:09.043Z,"    0"
2018-01-25T04:22:09.955Z,"    0"
2018-01-25T04:27:05.559Z,"    0"
2018-01-25T04:32:01.032Z,"    0"
2018-01-25T04:36:57.283Z,"    0"
2018-01-25T04:41:57.158Z,"    0"
2018-01-25T04:46:53.086Z,"    0"
2018-01-25T04:51:48.617Z,"    0"
2018-01-25T04:56:45.452Z,"    0"
2018-01-25T05:01:44.838Z,"    0"
2018-01-25T05:06:43.749Z,"    0"
2018-01-25T05:11:38.653Z,"    0"
2018-01-25T05:16:34.319Z,"    0"
2018-01-25T05:21:30.818Z,"    0"
2018-01-25T05:26:26.756Z,"    0"
2018-01-25T05:31:22.512Z,"    0"
2018-01-25T05:36:19.096Z,"    0"
2018-01-25T05:41:14.822Z,"    0"
2018-01-25T05:46:12.698Z,"    0"
2018-01-25T05:51:12.951Z,"    0"
2018-01-25T05:56:08.999Z,"    0"
2018-01-25T06:01:08.619Z,"    0"
2018-01-25T06:06:05.158Z,"    0"
2018-01-25T06:11:00.578Z,"    0"
2018-01-25T06:16:00.088Z,"    0"
2018-01-25T06:20:59.071Z,"    0"
2018-01-25T06:25:57.786Z,"    0"
2018-01-25T06:30:52.930Z,"    0"
2018-01-25T06:35:52.869Z,"    0"
2018-01-25T06:40:52.562Z,"    0"
2018-01-25T06:45:52.273Z,"    0"
2018-01-25T06:50:46.758Z,"    0"
2018-01-25T06:55:46.495Z,"    4"
2018-01-25T07:00:41.916Z,"   12"
2018-01-25T07:05:41.481Z,"   16"
2018-01-25T07:10:36.278Z,"   36"
2018-01-25T07:15:32.774Z,"   56"
2018-01-25T07:20:28.414Z,"   88"
2018-01-25T07:25:28.967Z,"  136"
2018-01-25T07:30:23.743Z,"  212"
2018-01-25T07:35:19.401Z,"  312"
2018-01-25T07:40:15.284Z,"  488"
2018-01-25T07:45:12.097Z,"  640"
2018-01-25T07:50:08.363Z,"  808"
2018-01-25T07:55:04.249Z," 1044"
2018-01-25T08:00:04.089Z," 1296"
2018-01-25T08:05:04.639Z," 1372"
2018-01-25T08:09:59.270Z," 1384"
2018-01-25T08:14:55.033Z," 1748"
2018-01-25T08:19:51.680Z," 1424"
2018-01-25T08:24:51.117Z," 2000"
2018-01-25T08:29:46.409Z," 2624"
2018-01-25T08:34:42.399Z," 2940"
2018-01-25T08:39:38.600Z," 2420"
2018-01-25T08:44:35.190Z," 2876"
2018-01-25T08:49:31.753Z," 3108"
2018-01-25T08:54:31.583Z," 3036"
2018-01-25T08:59:30.412Z," 2928"
2018-01-25T09:04:26.804Z," 3116"
2018-01-25T09:09:26.199Z," 3564"
2018-01-25T09:14:21.082Z," 3864"
2018-01-25T09:19:16.851Z," 4056"
2018-01-25T09:24:13.856Z," 2252"
2018-01-25T09:29:09.448Z," 3332"
2018-01-25T09:34:10.240Z," 3228"
2018-01-25T09:39:05.046Z," 3156"
2018-01-25T09:44:02.042Z," 3196"
2018-01-25T09:49:02.051Z," 3736"
2018-01-25T09:53:57.154Z," 3972"
2018-01-25T09:58:54.093Z," 4508"
2018-01-25T10:03:53.495Z," 4616"
2018-01-25T10:08:48.854Z," 4776"
2018-01-25T10:13:46.152Z," 5136"
2018-01-25T10:18:46.395Z," 4968"
2018-01-25T10:23:42.869Z," 5296"
2018-01-25T10:28:38.326Z," 5068"
2018-01-25T10:33:34.203Z," 5844"
2018-01-25T10:38:29.826Z," 6232"
2018-01-25T10:43:26.821Z," 6132"
2018-01-25T10:48:23.118Z," 6144"
2018-01-25T10:53:20.240Z," 6112"
2018-01-25T10:58:17.376Z," 5764"
2018-01-25T11:03:14.167Z," 6016"
2018-01-25T11:08:09.715Z," 5948"
2018-01-25T11:13:06.492Z," 4800"
2018-01-25T11:18:03.735Z," 7604"
2018-01-25T11:23:04.528Z," 7396"
2018-01-25T11:28:00.402Z," 6868"
2018-01-25T11:32:55.923Z," 5636"
2018-01-25T11:37:52.891Z," 6508"
2018-01-25T11:42:52.968Z," 6196"
2018-01-25T11:47:52.895Z," 5432"
2018-01-25T11:52:47.662Z," 6416"
2018-01-25T11:57:48.501Z," 7716"
2018-01-25T12:02:43.074Z," 6880"
2018-01-25T12:07:38.856Z," 7172"
2018-01-25T12:12:38.852Z," 7348"
2018-01-25T12:17:37.782Z," 6912"
2018-01-25T12:22:36.378Z," 3968"
2018-01-25T12:27:31.052Z," 3780"
2018-01-25T12:32:26.659Z," 2740"
2018-01-25T12:37:22.624Z," 2568"
2018-01-25T12:42:22.310Z," 4752"
2018-01-25T12:47:21.000Z," 3716"
2018-01-25T12:52:15.842Z," 2760"
2018-01-25T12:57:15.949Z," 2248"
2018-01-25T13:02:10.817Z," 3744"
2018-01-25T13:07:11.485Z," 3604"
2018-01-25T13:12:09.949Z," 2700"
2018-01-25T13:17:04.930Z," 4052"
2018-01-25T13:22:04.716Z," 4700"
2018-01-25T13:27:03.881Z," 5152"
2018-01-25T13:31:58.996Z," 4508"
2018-01-25T13:36:54.684Z," 4800"
2018-01-25T13:41:54.672Z," 4708"
2018-01-25T13:46:49.530Z," 4112"
2018-01-25T13:51:45.313Z," 4084"
2018-01-25T13:56:44.938Z," 3336"
2018-01-25T14:01:43.730Z," 2832"
2018-01-25T14:06:38.607Z," 2348"
2018-01-25T14:11:35.392Z," 2556"
2018-01-25T14:16:30.728Z," 2816"
2018-01-25T14:21:27.428Z," 2500"
2018-01-25T14:26:26.659Z," 2264"
2018-01-25T14:31:21.475Z," 1952"
2018-01-25T14:36:18.289Z," 1516"
2018-01-25T14:41:17.723Z," 1072"
2018-01-25T14:46:13.508Z,"  884"
2018-01-25T14:51:10.476Z,"  824"
2018-01-25T14:56:07.008Z,"  888"
2018-01-25T15:01:06.070Z,"  880"
2018-01-25T15:06:06.318Z,"  716"
2018-01-25T15:11:04.988Z,"  668"
2018-01-25T15:15:59.769Z,"  648"
2018-01-25T15:20:56.145Z,"  344"
2018-01-25T15:25:51.761Z,"  268"
2018-01-25T15:30:49.526Z,"  240"
2018-01-25T15:35:44.442Z,"  220"
2018-01-25T15:40:44.242Z,"  220"
2018-01-25T15:45:39.690Z,"  236"
2018-01-25T15:50:36.011Z,"  180"
2018-01-25T15:55:32.361Z,"  128"
2018-01-25T16:00:28.496Z,"  100"
2018-01-25T16:05:27.859Z,"   64"
2018-01-25T16:10:26.568Z,"   36"
2018-01-25T16:15:21.673Z,"   20"
2018-01-25T16:20:21.269Z,"   12"
2018-01-25T16:25:16.165Z,"    4"
2018-01-25T16:30:11.898Z,"    4"
2018-01-25T16:35:07.672Z,"    0"
2018-01-25T16:40:03.488Z,"    0"
2018-01-25T16:44:59.187Z,"    0"
2018-01-25T16:49:58.944Z,"    0"
2018-01-25T16:54:57.836Z,"    0"
2018-01-25T16:59:52.858Z,"    0"
2018-01-25T17:04:48.184Z,"    0"
2018-01-25T17:09:47.895Z,"    0"
2018-01-25T17:14:44.291Z,"    0"
2018-01-25T17:19:39.492Z,"    0"
2018-01-25T17:24:35.158Z,"    0"
2018-01-25T17:29:31.242Z,"    0"
2018-01-25T17:34:26.963Z,"    0"
2018-01-25T17:39:22.689Z,"    0"
2018-01-25T17:44:18.742Z,"    0"
2018-01-25T17:49:14.426Z,"    0"
2018-01-25T17:54:10.955Z,"    0"
2018-01-25T17:59:06.545Z,"    0"
2018-01-25T18:04:06.507Z,"    0"
2018-01-25T18:09:06.295Z,"    0"
2018-01-25T18:14:01.672Z,"    0"
2018-01-25T18:18:57.205Z,"    0"
2018-01-25T18:23:53.195Z,"    0"
2018-01-25T18:28:49.969Z,"    0"
2018-01-25T18:33:45.730Z,"    0"
2018-01-25T18:38:45.613Z,"    0"
2018-01-25T18:43:40.029Z,"    0"
2018-01-25T18:48:40.220Z,"    0"
2018-01-25T18:53:36.337Z,"    0"
2018-01-25T18:58:32.807Z,"    0"
2018-01-25T19:03:29.629Z,"    0"
2018-01-25T19:08:26.123Z,"    0"
2018-01-25T19:13:25.587Z,"    0"
2018-01-25T19:18:24.562Z,"    0"
2018-01-25T19:23:19.435Z,"    0"
2018-01-25T19:28:20.129Z,"    0"
2018-01-25T19:33:18.680Z,"    0"
2018-01-25T19:38:14.490Z,"    0"
2018-01-25T19:43:10.942Z,"    0"
2018-01-25T19:48:06.475Z,"    0"
2018-01-25T19:53:02.317Z,"    0"
2018-01-25T19:57:57.907Z,"    0"
2018-01-25T20:02:54.698Z,"    0"
2018-01-25T20:07:53.941Z,"    0"
2018-01-25T20:12:48.659Z,"    0"
2018-01-25T20:17:48.305Z,"    0"
2018-01-25T20:22:43.190Z,"    0"
2018-01-25T20:27:40.567Z,"    0"
2018-01-25T20:32:36.144Z,"    0"
2018-01-25T20:37:35.578Z,"    0"
2018-01-25T20:42:30.890Z,"    0"
2018-01-25T20:47:27.568Z,"    0"
2018-01-25T20:52:22.778Z,"    0"
2018-01-25T20:57:19.034Z,"    0"
2018-01-25T21:02:18.783Z,"    0"
2018-01-25T21:07:18.111Z,"    0"
2018-01-25T21:12:13.135Z,"    0"
2018-01-25T21:17:10.111Z,"    0"
2018-01-25T21:22:09.517Z,"    0"
2018-01-25T21:27:04.116Z,"    0"
2018-01-25T21:31:59.887Z,"    0"
2018-01-25T21:36:55.217Z,"    0"
2018-01-25T21:41:51.317Z,"    0"
2018-01-25T21:46:46.651Z,"    0"
2018-01-25T21:51:42.312Z,"    0"
2018-01-25T21:56:37.995Z,"    0"
2018-01-25T22:01:33.862Z,"    0"
2018-01-25T22:06:29.558Z,"    0"
2018-01-25T22:11:29.770Z,"    0"
2018-01-25T22:16:29.556Z,"    0"
2018-01-25T22:21:28.165Z,"    0"
2018-01-25T22:26:23.214Z,"    0"
2018-01-25T22:31:18.656Z,"    0"
2018-01-25T22:36:15.512Z,"    0"
2018-01-25T22:41:10.827Z,"    0"
2018-01-25T22:46:10.622Z,"    0"
2018-01-25T22:51:10.239Z,"    0"
2018-01-25T22:56:05.181Z,"    0"
2018-01-25T23:01:01.892Z,"    0"
2018-01-25T23:05:58.445Z,"    0"
2018-01-25T23:10:59.005Z,"    0"
2018-01-25T23:15:57.520Z,"    0"
2018-01-25T23:20:53.412Z,"    0"
2018-01-25T23:25:49.448Z,"    0"
2018-01-25T23:30:44.966Z,"    0"
2018-01-25T23:35:45.410Z,"    0"
2018-01-25T23:40:40.250Z,"    0"
2018-01-25T23:45:35.853Z,"    0"
2018-01-25T23:50:31.853Z,"    0"
2018-01-25T23:55:33.058Z,"    0"
